Balaton, Minnesota
Current Conditions -  °F | °C
As of 8:33 AM on Saturday 25 Oct 2014 (Local Time) from KTKC Reporting Station
Clear Clear  
Wind Chill: 52°   Ceiling: Unl
Heat Index: 52°   Visibility: 10mi
Dew Point: 35°   Wind: 5mph
Humidity: 53%   Direction: 300°WNW
Pressure: 30.1"   Gusts: NA
Location:  44.23°N, 95.87°W
Report Text: KTKC 251333Z AUTO 30004KT 10SM CLR 11/02 A3010 RMK AO2 T01110017
Loading
Personal Weather Stations






























Interactive Weather Map
Tropical Storm Tracking
New forecast layout! Learn more

10-Day Weather Forecast

Advertisements
Track Severe Weather on mobile